createdAt,value
2023-02-01T00:00:33.703Z,4.2
2023-02-01T00:05:33.836Z,4.2
2023-02-01T00:10:33.587Z,4.3
2023-02-01T00:15:33.939Z,4.3
2023-02-01T00:20:34.185Z,4.3
2023-02-01T00:25:34.273Z,4.3
2023-02-01T00:30:33.444Z,4.2
2023-02-01T00:35:33.791Z,4.2
2023-02-01T00:40:34.050Z,4.3
2023-02-01T00:45:36.292Z,4.3
2023-02-01T00:50:33.404Z,4.4
2023-02-01T00:55:33.947Z,4.4
2023-02-01T01:00:34.142Z,4.4
2023-02-01T01:05:33.946Z,4.4
2023-02-01T01:10:33.418Z,4.6
2023-02-01T01:15:33.711Z,4.6
2023-02-01T01:20:33.824Z,4.7
2023-02-01T01:25:34.012Z,4.7
2023-02-01T01:30:33.961Z,4.8
2023-02-01T01:35:34.349Z,4.8
2023-02-01T01:40:33.823Z,4.8
2023-02-01T01:45:34.063Z,4.8
2023-02-01T01:50:33.376Z,4.9
2023-02-01T01:55:33.597Z,4.9
2023-02-01T02:00:34.276Z,5.1
2023-02-01T02:05:33.531Z,5.1
2023-02-01T02:10:33.875Z,5.2
2023-02-01T02:15:33.983Z,5.2
2023-02-01T02:20:34.196Z,5.2
2023-02-01T02:25:34.470Z,5.2
2023-02-01T02:30:33.750Z,5.3
2023-02-01T02:35:33.885Z,5.3
2023-02-01T02:40:33.786Z,5.4
2023-02-01T02:45:33.998Z,5.4
2023-02-01T02:50:34.373Z,5.4
2023-02-01T02:55:34.025Z,5.4
2023-02-01T03:00:34.126Z,5.5
2023-02-01T03:05:33.631Z,5.5
2023-02-01T03:10:33.808Z,5.6
2023-02-01T03:15:33.818Z,5.6
2023-02-01T03:20:33.623Z,5.4
2023-02-01T03:25:33.724Z,5.4
2023-02-01T03:30:33.926Z,5.3
2023-02-01T03:35:33.755Z,5.3
2023-02-01T03:40:33.436Z,5
2023-02-01T03:45:33.674Z,5
2023-02-01T03:50:34.109Z,4.8
2023-02-01T03:55:34.199Z,4.8
2023-02-01T04:00:33.702Z,4.8
2023-02-01T04:05:33.825Z,4.8
2023-02-01T04:10:34.379Z,4.7
2023-02-01T04:15:33.597Z,4.7
2023-02-01T04:20:33.861Z,4.8
2023-02-01T04:25:34.415Z,4.8
2023-02-01T04:30:33.746Z,4.7
2023-02-01T04:35:34.374Z,4.7
2023-02-01T04:40:34.323Z,4.7
2023-02-01T04:45:33.560Z,4.7
2023-02-01T04:50:33.892Z,4.6
2023-02-01T04:55:34.114Z,4.6
2023-02-01T05:00:34.374Z,4.3
2023-02-01T05:05:33.561Z,4.3
2023-02-01T05:10:33.724Z,4.1
2023-02-01T05:15:33.829Z,4.1
2023-02-01T05:20:33.919Z,4.3
2023-02-01T05:25:33.755Z,4.3
2023-02-01T05:30:33.701Z,4.2
2023-02-01T05:35:33.788Z,4.2
2023-02-01T05:40:34.502Z,4.2
2023-02-01T05:45:33.665Z,4.2
2023-02-01T05:50:33.727Z,4.2
2023-02-01T05:55:33.929Z,4.2
2023-02-01T06:00:33.531Z,4.1
2023-02-01T06:05:33.558Z,4.1
2023-02-01T06:10:33.619Z,3.8
2023-02-01T06:15:33.675Z,3.8
2023-02-01T06:20:39.279Z,3.4
2023-02-01T06:25:33.679Z,3.4
2023-02-01T06:30:33.903Z,3.3
2023-02-01T06:35:34.256Z,3.3
2023-02-01T06:40:34.552Z,3.3
2023-02-01T06:45:33.819Z,3.3
2023-02-01T06:50:34.130Z,3.2
2023-02-01T06:55:34.200Z,3.2
2023-02-01T07:00:34.299Z,3.2
2023-02-01T07:05:34.536Z,3.2
2023-02-01T07:10:33.667Z,3.2
2023-02-01T07:15:34.032Z,3.2
2023-02-01T07:20:34.374Z,3.3
2023-02-01T07:25:34.542Z,3.3
2023-02-01T07:30:34.633Z,3.4
2023-02-01T07:35:33.730Z,3.4
2023-02-01T07:40:33.928Z,3.6
2023-02-01T07:45:36.879Z,3.6
2023-02-01T07:50:34.533Z,3.8
2023-02-01T07:55:33.669Z,3.8
2023-02-01T08:00:34.628Z,4
2023-02-01T08:05:33.878Z,4
2023-02-01T08:10:34.175Z,4.2
2023-02-01T08:15:34.198Z,4.2
2023-02-01T08:20:34.380Z,4.4
2023-02-01T08:25:33.704Z,4.4
2023-02-01T08:30:34.334Z,4.6
2023-02-01T08:35:42.857Z,4.6
2023-02-01T08:40:34.700Z,4.7
2023-02-01T08:45:33.915Z,4.7
2023-02-01T08:50:34.211Z,4.8
2023-02-01T08:55:34.086Z,4.8
2023-02-01T09:00:34.640Z,4.9
2023-02-01T09:06:22.546Z,4.9
2023-02-01T09:10:35.499Z,5
2023-02-01T09:15:34.657Z,5
2023-02-01T09:20:33.856Z,4.9
2023-02-01T09:25:33.930Z,4.9
2023-02-01T09:30:33.864Z,5.1
2023-02-01T09:35:33.958Z,5.1
2023-02-01T09:40:34.335Z,5.1
2023-02-01T09:45:34.335Z,5.1
2023-02-01T09:50:34.602Z,4.6
2023-02-01T09:55:33.923Z,4.6
2023-02-01T10:00:34.136Z,4.2
2023-02-01T10:05:34.543Z,4.2
2023-02-01T10:10:34.135Z,4.4
2023-02-01T10:15:34.012Z,4.4
2023-02-01T10:20:34.219Z,5
2023-02-01T10:25:34.303Z,5
2023-02-01T10:30:35.646Z,5.4
2023-02-01T10:35:33.878Z,5.4
2023-02-01T10:40:34.270Z,5.3
2023-02-01T10:45:34.023Z,5.3
2023-02-01T10:50:34.399Z,5.2
2023-02-01T10:55:34.604Z,5.2
2023-02-01T11:00:33.812Z,5
2023-02-01T11:05:34.149Z,5
2023-02-01T11:10:34.694Z,4.8
2023-02-01T11:15:33.745Z,4.8
2023-02-01T11:20:33.731Z,5.1
2023-02-01T11:25:34.020Z,5.1
2023-02-01T11:30:34.370Z,5.3
2023-02-01T11:35:34.733Z,5.3
2023-02-01T11:40:33.827Z,5.3
2023-02-01T11:45:33.792Z,5.3
2023-02-01T11:50:34.191Z,5.2
2023-02-01T11:55:34.235Z,5.2
2023-02-01T12:00:34.465Z,5.2
2023-02-01T12:05:34.423Z,5.2
2023-02-01T12:10:34.569Z,5.4
2023-02-01T12:15:33.866Z,5.4
2023-02-01T12:20:34.421Z,5.6
2023-02-01T12:25:33.841Z,5.6
2023-02-01T12:30:34.009Z,5.6
2023-02-01T12:35:34.406Z,5.6
2023-02-01T12:40:34.449Z,5.6
2023-02-01T12:45:34.698Z,5.6
2023-02-01T12:50:34.095Z,5.4
2023-02-01T12:55:34.143Z,5.4
2023-02-01T13:00:34.295Z,5.2
2023-02-01T13:05:34.343Z,5.2
2023-02-01T13:10:34.491Z,4.9
2023-02-01T13:15:34.479Z,4.9
2023-02-01T13:20:34.536Z,4.7
2023-02-01T13:25:34.516Z,4.7
2023-02-01T13:30:34.663Z,4.5
2023-02-01T13:35:33.923Z,4.5
2023-02-01T13:40:33.848Z,4.4
2023-02-01T13:45:34.100Z,4.4
2023-02-01T13:50:34.145Z,4.6
2023-02-01T13:55:34.240Z,4.6
2023-02-01T14:00:36.039Z,4.6
2023-02-01T14:05:34.671Z,4.6
2023-02-01T14:10:34.800Z,4.5
2023-02-01T14:15:33.881Z,4.5
2023-02-01T14:20:34.317Z,4.5
2023-02-01T14:25:34.512Z,4.5
2023-02-01T14:30:33.994Z,4.4
2023-02-01T14:35:34.042Z,4.4
2023-02-01T14:40:34.396Z,4.4
2023-02-01T14:45:34.798Z,4.4
2023-02-01T14:50:34.116Z,4.3
2023-02-01T14:55:34.199Z,4.3
2023-02-01T15:00:33.895Z,4.1
2023-02-01T15:05:34.243Z,4.1
2023-02-01T15:10:33.866Z,3.9
2023-02-01T15:15:34.864Z,3.9
2023-02-01T15:20:34.312Z,3.9
2023-02-01T15:25:34.145Z,3.9
2023-02-01T15:30:34.569Z,3.9
2023-02-01T15:35:34.777Z,3.9
2023-02-01T15:40:33.968Z,4.1
2023-02-01T15:45:33.911Z,4.1
2023-02-01T15:50:34.385Z,4.1
2023-02-01T15:55:34.728Z,4.1
2023-02-01T16:00:34.838Z,4.2
2023-02-01T16:05:34.520Z,4.2
2023-02-01T16:10:34.099Z,4.2
2023-02-01T16:15:34.406Z,4.2
2023-02-01T16:20:34.786Z,4.2
2023-02-01T16:25:33.997Z,4.2
2023-02-01T16:30:34.223Z,4.2
2023-02-01T16:35:34.791Z,4.2
2023-02-01T16:40:34.957Z,4.2
2023-02-01T16:45:34.044Z,4.2
2023-02-01T16:50:34.264Z,4.2
2023-02-01T16:55:34.527Z,4.2
2023-02-01T17:00:34.118Z,4.2
2023-02-01T17:05:34.666Z,4.2
2023-02-01T17:10:34.987Z,4.2
2023-02-01T17:15:34.276Z,4.2
2023-02-01T17:20:34.351Z,4.2
2023-02-01T17:25:34.617Z,4.2
2023-02-01T17:30:34.791Z,4.2
2023-02-01T17:35:34.033Z,4.2
2023-02-01T17:40:34.383Z,4.3
2023-02-01T17:45:34.601Z,4.3
2023-02-01T17:50:34.779Z,4.4
2023-02-01T17:55:34.913Z,4.4
2023-02-01T18:00:35.744Z,4.6
2023-02-01T18:05:33.953Z,4.6
2023-02-01T18:10:34.033Z,4.7
2023-02-01T18:15:34.101Z,4.7
2023-02-01T18:20:34.163Z,4.7
2023-02-01T18:25:34.206Z,4.7
2023-02-01T18:30:34.325Z,4.8
2023-02-01T18:35:34.503Z,4.8
2023-02-01T18:40:34.621Z,4.3
2023-02-01T18:45:34.662Z,4.3
2023-02-01T18:50:34.738Z,4.3
2023-02-01T18:55:34.881Z,4.3
2023-02-01T19:00:34.017Z,4.3
2023-02-01T19:05:34.079Z,4.3
2023-02-01T19:10:34.644Z,4.5
2023-02-01T19:15:34.180Z,4.5
2023-02-01T19:20:34.383Z,4.6
2023-02-01T19:25:34.430Z,4.6
2023-02-01T19:30:34.327Z,4.7
2023-02-01T19:35:34.562Z,4.7
2023-02-01T19:40:34.659Z,4.8
2023-02-01T19:45:34.649Z,4.8
2023-02-01T19:50:35.062Z,5
2023-02-01T19:55:34.736Z,5
2023-02-01T20:00:33.984Z,5.1
2023-02-01T20:05:33.988Z,5.1
2023-02-01T20:10:34.090Z,5
2023-02-01T20:15:33.292Z,5
2023-02-01T20:20:33.519Z,4.8
2023-02-01T20:25:34.564Z,4.8
2023-02-01T20:30:34.794Z,4.8
2023-02-01T20:35:34.283Z,4.8
2023-02-01T20:40:34.380Z,4.9
2023-02-01T20:45:34.473Z,4.9
2023-02-01T20:50:34.392Z,4.9
2023-02-01T20:55:35.057Z,4.9
2023-02-01T21:00:34.566Z,4.9
2023-02-01T21:05:34.651Z,4.9
2023-02-01T21:10:34.829Z,5
2023-02-01T21:15:34.975Z,5
2023-02-01T21:20:35.032Z,5.1
2023-02-01T21:25:34.715Z,5.1
2023-02-01T21:30:34.842Z,5.2
2023-02-01T21:35:34.661Z,5.2
2023-02-01T21:40:34.777Z,5
2023-02-01T21:45:34.636Z,5
2023-02-01T21:50:34.940Z,5
2023-02-01T21:55:34.643Z,5
2023-02-01T22:00:34.293Z,5.1
2023-02-01T22:05:34.584Z,5.1
2023-02-01T22:10:34.775Z,5.2
2023-02-01T22:15:34.797Z,5.2
2023-02-01T22:20:34.886Z,5.3
2023-02-01T22:25:34.967Z,5.3
2023-02-01T22:30:35.139Z,5.4
2023-02-01T22:35:34.672Z,5.4
2023-02-01T22:40:36.115Z,5.4
2023-02-01T22:45:34.126Z,5.4
2023-02-01T22:50:34.476Z,5.4
2023-02-01T22:55:34.366Z,5.4
2023-02-01T23:00:34.855Z,5.3
2023-02-01T23:05:35.040Z,5.3
2023-02-01T23:10:34.312Z,5.3
2023-02-01T23:15:34.440Z,5.3
2023-02-01T23:20:34.602Z,5.3
2023-02-01T23:25:34.691Z,5.3
2023-02-01T23:30:35.080Z,5.3
2023-02-01T23:35:34.180Z,5.3
2023-02-01T23:40:34.535Z,5.2
2023-02-01T23:45:34.487Z,5.2
2023-02-01T23:55:35.223Z,5.2
